Time;durP1;ratioP1;P1;durP2;ratioP2;P2;SDS_P1;SDS_P2;PMS_P1;PMS_P2;Temp;Humidity;BMP_temperature;BMP_pressure;BME280_temperature;BME280_humidity;BME280_pressure;Samples;Min_cycle;Max_cycle;Signal;HPM_P1;HPM_P2
2022/10/13 00:00:34;;;;;;;24.48;17.90;;;;;;;;;;5061961;28;20708;-72
2022/10/13 00:03:01;;;;;;;30.17;17.42;;;;;;;;;;5061846;28;20263;-72
2022/10/13 00:05:27;;;;;;;34.67;21.13;;;;;;;;;;5064302;28;20750;-71
2022/10/13 00:07:54;;;;;;;29.98;19.52;;;;;;;;;;5063736;28;20882;-72
2022/10/13 00:10:22;;;;;;;26.42;18.80;;;;;;;;;;5064007;28;20233;-72
2022/10/13 00:12:48;;;;;;;27.45;19.77;;;;;;;;;;5064417;28;20258;-72
2022/10/13 00:15:15;;;;;;;29.95;19.27;;;;;;;;;;5062174;28;20234;-72
2022/10/13 00:17:41;;;;;;;30.20;20.67;;;;;;;;;;5063380;28;20233;-72
2022/10/13 00:20:09;;;;;;;26.13;19.80;;;;;;;;;;5063694;28;20932;-73
2022/10/13 00:22:35;;;;;;;26.85;18.92;;;;;;;;;;5062637;28;20236;-72
2022/10/13 00:25:02;;;;;;;30.13;20.35;;;;;;;;;;5059238;28;20646;-73
2022/10/13 00:27:30;;;;;;;35.80;18.83;;;;;;;;;;5061673;28;20204;-72
2022/10/13 00:29:56;;;;;;;32.47;20.38;;;;;;;;;;5057759;28;20226;-72
2022/10/13 00:32:23;;;;;;;30.83;18.70;;;;;;;;;;5056955;28;20216;-73
2022/10/13 00:34:49;;;;;;;30.67;19.00;;;;;;;;;;5055700;28;20248;-73
2022/10/13 00:37:16;;;;;;;24.85;18.00;;;;;;;;;;5052971;28;20201;-72
2022/10/13 00:39:42;;;;;;;24.63;18.02;;;;;;;;;;5053942;28;20310;-72
2022/10/13 00:42:11;;;;;;;24.17;17.30;;;;;;;;;;5058109;28;20232;-72
2022/10/13 00:44:58;;;;;;;26.60;17.95;;;;;;;;;;5059191;28;20247;-73
2022/10/13 00:47:26;;;;;;;25.08;16.58;;;;;;;;;;5055064;28;20271;-73
2022/10/13 00:49:53;;;;;;;27.23;16.45;;;;;;;;;;5057373;28;20209;-73
2022/10/13 00:52:20;;;;;;;22.80;15.82;;;;;;;;;;5058859;28;20268;-73
2022/10/13 00:54:48;;;;;;;23.13;17.17;;;;;;;;;;5057362;28;20883;-73
2022/10/13 00:57:14;;;;;;;23.65;17.40;;;;;;;;;;5057276;28;20282;-73
2022/10/13 00:59:41;;;;;;;22.35;16.67;;;;;;;;;;5059019;28;20720;-73
2022/10/13 01:02:09;;;;;;;22.50;16.70;;;;;;;;;;5058257;28;20233;-74
2022/10/13 01:04:38;;;;;;;22.83;16.90;;;;;;;;;;5056433;28;20245;-73
2022/10/13 01:07:05;;;;;;;24.02;16.92;;;;;;;;;;5053450;28;20275;-71
2022/10/13 01:09:36;;;;;;;21.52;15.90;;;;;;;;;;5056292;28;20212;-72
2022/10/13 01:12:10;;;;;;;22.45;16.25;;;;;;;;;;5057646;28;20247;-73
2022/10/13 01:14:41;;;;;;;21.33;15.38;;;;;;;;;;5054621;28;20245;-73
2022/10/13 01:17:13;;;;;;;29.83;16.25;;;;;;;;;;5058729;28;20670;-72
2022/10/13 01:19:55;;;;;;;22.23;15.98;;;;;;;;;;5064057;28;20210;-72
2022/10/13 01:22:30;;;;;;;19.95;15.23;;;;;;;;;;5062344;28;20650;-72
2022/10/13 01:25:02;;;;;;;26.65;16.40;;;;;;;;;;5058990;28;21859;-72
2022/10/13 01:27:39;;;;;;;26.15;17.15;;;;;;;;;;5061278;28;20295;-72
2022/10/13 01:30:11;;;;;;;22.58;16.77;;;;;;;;;;5060948;28;20205;-71
2022/10/13 01:32:51;;;;;;;20.60;14.60;;;;;;;;;;5060089;28;20212;-72
2022/10/13 01:35:20;;;;;;;25.95;15.40;;;;;;;;;;5060877;28;20365;-72
2022/10/13 01:37:48;;;;;;;24.27;14.98;;;;;;;;;;5062050;28;20201;-72
2022/10/13 01:40:18;;;;;;;29.55;15.70;;;;;;;;;;5063835;28;20228;-71
2022/10/13 01:42:48;;;;;;;22.55;16.13;;;;;;;;;;5065261;28;20208;-71
2022/10/13 01:45:17;;;;;;;22.08;16.23;;;;;;;;;;5062765;28;20322;-72
2022/10/13 01:47:45;;;;;;;22.45;15.13;;;;;;;;;;5059390;28;20692;-73
2022/10/13 01:50:12;;;;;;;24.95;15.32;;;;;;;;;;5065018;28;20198;-72
2022/10/13 01:52:39;;;;;;;23.70;15.85;;;;;;;;;;5062891;28;20672;-73
2022/10/13 01:55:06;;;;;;;20.35;16.15;;;;;;;;;;5064749;28;21105;-72
2022/10/13 01:57:33;;;;;;;28.17;19.40;;;;;;;;;;5061726;28;20202;-71
2022/10/13 02:00:01;;;;;;;35.45;22.65;;;;;;;;;;5061538;28;20228;-72
2022/10/13 02:02:35;;;;;;;28.50;20.05;;;;;;;;;;5058743;28;20202;-72
2022/10/13 02:05:05;;;;;;;38.33;25.27;;;;;;;;;;5059641;28;20365;-72
2022/10/13 02:07:36;;;;;;;38.08;23.10;;;;;;;;;;5062200;28;20248;-72
2022/10/13 02:10:07;;;;;;;31.45;20.55;;;;;;;;;;5064797;28;22024;-73
2022/10/13 02:12:36;;;;;;;32.58;21.17;;;;;;;;;;5061489;28;20233;-73
2022/10/13 02:15:04;;;;;;;34.10;22.45;;;;;;;;;;5063377;28;20233;-73
2022/10/13 02:17:32;;;;;;;32.05;22.52;;;;;;;;;;5059727;28;20731;-72
2022/10/13 02:19:59;;;;;;;26.70;19.50;;;;;;;;;;5058252;28;20217;-72
2022/10/13 02:22:28;;;;;;;25.33;19.95;;;;;;;;;;5066311;28;20269;-72
2022/10/13 02:24:55;;;;;;;30.27;21.13;;;;;;;;;;5059843;28;20328;-73
2022/10/13 02:27:22;;;;;;;33.55;22.63;;;;;;;;;;5058333;28;20342;-73
2022/10/13 02:29:49;;;;;;;37.30;24.25;;;;;;;;;;5061522;28;20316;-71
2022/10/13 02:32:15;;;;;;;31.20;19.92;;;;;;;;;;5062538;28;20224;-72
2022/10/13 02:34:43;;;;;;;25.58;19.35;;;;;;;;;;5060262;28;20810;-73
2022/10/13 02:37:10;;;;;;;31.20;19.88;;;;;;;;;;5064215;28;20356;-74
2022/10/13 02:39:36;;;;;;;31.63;20.58;;;;;;;;;;5059728;28;20201;-72
2022/10/13 02:42:03;;;;;;;29.58;19.88;;;;;;;;;;5063929;28;20843;-72
2022/10/13 02:44:29;;;;;;;29.50;18.65;;;;;;;;;;5061156;28;20205;-72
2022/10/13 02:46:56;;;;;;;22.60;17.33;;;;;;;;;;5059343;28;20263;-73
2022/10/13 02:49:22;;;;;;;24.75;16.48;;;;;;;;;;5060542;28;20282;-73
2022/10/13 02:51:50;;;;;;;25.42;17.48;;;;;;;;;;5060769;28;20245;-73
2022/10/13 02:54:17;;;;;;;28.42;18.23;;;;;;;;;;5066118;28;20312;-73
2022/10/13 02:56:43;;;;;;;23.45;17.02;;;;;;;;;;5043949;28;20323;-73
2022/10/13 02:59:10;;;;;;;23.02;17.05;;;;;;;;;;5033541;28;21935;-71
2022/10/13 03:01:40;;;;;;;29.38;19.52;;;;;;;;;;5049545;28;20953;-73
2022/10/13 03:04:06;;;;;;;27.98;18.33;;;;;;;;;;5062581;28;20226;-74
2022/10/13 03:06:33;;;;;;;27.92;19.73;;;;;;;;;;5057791;28;22092;-72
2022/10/13 03:09:01;;;;;;;30.20;19.67;;;;;;;;;;5057972;28;20210;-71
2022/10/13 03:11:27;;;;;;;28.17;19.00;;;;;;;;;;5060962;28;20262;-75
2022/10/13 03:13:54;;;;;;;24.67;18.38;;;;;;;;;;5063858;28;20201;-73
2022/10/13 03:16:21;;;;;;;29.30;18.48;;;;;;;;;;5063534;28;20276;-73
2022/10/13 03:18:47;;;;;;;27.17;18.05;;;;;;;;;;5059697;28;20285;-72
2022/10/13 03:21:13;;;;;;;25.90;16.92;;;;;;;;;;5059439;28;20208;-73
2022/10/13 03:23:40;;;;;;;21.33;16.73;;;;;;;;;;5066561;28;20671;-74
2022/10/13 03:26:08;;;;;;;24.67;17.77;;;;;;;;;;5064585;28;20727;-73
2022/10/13 03:28:35;;;;;;;24.20;16.95;;;;;;;;;;5062585;28;20917;-74
2022/10/13 03:31:02;;;;;;;26.85;16.38;;;;;;;;;;5059041;28;20229;-73
2022/10/13 03:33:28;;;;;;;23.45;17.15;;;;;;;;;;5059443;28;20752;-74
2022/10/13 03:35:57;;;;;;;27.52;16.02;;;;;;;;;;5061009;28;20226;-73
2022/10/13 03:38:24;;;;;;;24.17;17.05;;;;;;;;;;5060462;28;20229;-73
2022/10/13 03:40:50;;;;;;;22.77;15.60;;;;;;;;;;5056732;28;20213;-72
2022/10/13 03:43:18;;;;;;;28.75;16.27;;;;;;;;;;5064266;28;20206;-74
2022/10/13 03:45:44;;;;;;;25.38;16.55;;;;;;;;;;5063171;28;20647;-73
2022/10/13 03:48:11;;;;;;;23.73;17.15;;;;;;;;;;5065919;28;20772;-72
2022/10/13 03:50:38;;;;;;;24.15;16.10;;;;;;;;;;5060747;28;20212;-73
2022/10/13 03:53:04;;;;;;;50.72;30.08;;;;;;;;;;5057479;28;20726;-72
2022/10/13 03:55:30;;;;;;;78.93;44.42;;;;;;;;;;5058379;28;20841;-74
2022/10/13 03:57:57;;;;;;;36.47;21.77;;;;;;;;;;5059528;28;20205;-75
2022/10/13 04:00:25;;;;;;;32.78;20.95;;;;;;;;;;5058152;28;20273;-72
2022/10/13 04:02:51;;;;;;;33.67;18.95;;;;;;;;;;5058097;28;20216;-74
2022/10/13 04:05:18;;;;;;;39.40;18.98;;;;;;;;;;5058651;28;20266;-72
2022/10/13 04:07:44;;;;;;;36.95;18.65;;;;;;;;;;5058260;28;20260;-74
2022/10/13 04:10:11;;;;;;;36.75;20.38;;;;;;;;;;5060497;28;20240;-73
2022/10/13 04:12:37;;;;;;;36.90;19.98;;;;;;;;;;5064434;28;20223;-73
2022/10/13 04:15:04;;;;;;;35.47;19.85;;;;;;;;;;5063773;28;20201;-73
2022/10/13 04:17:32;;;;;;;44.20;21.83;;;;;;;;;;5066507;28;20907;-72
2022/10/13 04:19:58;;;;;;;44.25;22.65;;;;;;;;;;5064218;28;20232;-72
2022/10/13 04:22:25;;;;;;;78.78;39.67;;;;;;;;;;5060867;28;20289;-73
2022/10/13 04:24:51;;;;;;;62.17;27.85;;;;;;;;;;5063468;28;20204;-73
2022/10/13 04:27:19;;;;;;;43.33;21.77;;;;;;;;;;5059670;28;20204;-74
2022/10/13 04:29:45;;;;;;;49.78;22.52;;;;;;;;;;5061338;28;20198;-73
2022/10/13 04:32:11;;;;;;;38.22;21.42;;;;;;;;;;5059405;28;20210;-73
2022/10/13 04:34:39;;;;;;;38.33;21.70;;;;;;;;;;5061877;28;20267;-73
2022/10/13 04:37:06;;;;;;;38.55;21.17;;;;;;;;;;5065059;28;20248;-74
2022/10/13 04:39:32;;;;;;;71.68;39.70;;;;;;;;;;5061125;28;20281;-73
2022/10/13 04:41:59;;;;;;;86.43;45.45;;;;;;;;;;5061183;28;20205;-73
2022/10/13 04:44:25;;;;;;;53.58;30.20;;;;;;;;;;5059049;28;20240;-74
2022/10/13 04:46:52;;;;;;;49.60;24.83;;;;;;;;;;5062413;28;20234;-73
2022/10/13 04:49:18;;;;;;;50.33;24.17;;;;;;;;;;5062089;28;20209;-72
2022/10/13 04:51:46;;;;;;;45.03;25.27;;;;;;;;;;5062267;28;20733;-72
2022/10/13 04:54:13;;;;;;;39.20;24.35;;;;;;;;;;5061735;28;20251;-73
2022/10/13 04:56:39;;;;;;;44.65;23.67;;;;;;;;;;5063720;28;20318;-72
2022/10/13 04:59:06;;;;;;;38.03;22.70;;;;;;;;;;5061506;28;20190;-74
2022/10/13 05:01:34;;;;;;;44.58;24.77;;;;;;;;;;5064082;28;20757;-72
2022/10/13 05:04:02;;;;;;;36.60;22.02;;;;;;;;;;5062804;28;20205;-73
2022/10/13 05:06:29;;;;;;;38.30;21.90;;;;;;;;;;5062908;28;20237;-73
2022/10/13 05:08:57;;;;;;;40.58;22.75;;;;;;;;;;5059791;28;21057;-73
2022/10/13 05:11:24;;;;;;;39.58;23.35;;;;;;;;;;5060469;28;20642;-73
2022/10/13 05:13:50;;;;;;;48.92;24.20;;;;;;;;;;5061527;28;20212;-72
2022/10/13 05:16:18;;;;;;;53.90;26.35;;;;;;;;;;5064319;28;20631;-73
2022/10/13 05:18:45;;;;;;;59.05;27.50;;;;;;;;;;5065062;28;21125;-72
2022/10/13 05:21:12;;;;;;;65.10;29.13;;;;;;;;;;5062795;28;20262;-73
2022/10/13 05:23:39;;;;;;;63.40;29.20;;;;;;;;;;5062922;28;20274;-73
2022/10/13 05:26:08;;;;;;;67.65;28.67;;;;;;;;;;5063148;28;20213;-72
2022/10/13 05:28:35;;;;;;;58.45;29.48;;;;;;;;;;5063430;28;20290;-74
2022/10/13 05:31:08;;;;;;;56.22;29.02;;;;;;;;;;5061848;28;20717;-73
2022/10/13 05:33:35;;;;;;;54.47;27.95;;;;;;;;;;5057057;28;20212;-73
2022/10/13 05:36:03;;;;;;;55.50;27.40;;;;;;;;;;5054198;28;20772;-73
2022/10/13 05:38:29;;;;;;;51.38;27.80;;;;;;;;;;5056347;28;20262;-73
2022/10/13 05:41:01;;;;;;;62.35;29.75;;;;;;;;;;5055292;28;20294;-73
2022/10/13 05:43:30;;;;;;;57.65;27.90;;;;;;;;;;5057205;28;20237;-73
2022/10/13 05:45:56;;;;;;;54.92;28.73;;;;;;;;;;5055668;28;20201;-74
2022/10/13 05:48:23;;;;;;;47.15;25.45;;;;;;;;;;5056870;28;20874;-73
2022/10/13 05:50:49;;;;;;;43.97;24.60;;;;;;;;;;5056012;28;20735;-72
2022/10/13 05:53:16;;;;;;;44.95;24.10;;;;;;;;;;5057278;28;20301;-72
2022/10/13 05:55:42;;;;;;;35.85;23.30;;;;;;;;;;5057091;28;20214;-73
2022/10/13 05:58:09;;;;;;;35.97;23.25;;;;;;;;;;5058358;28;20317;-73
2022/10/13 06:00:37;;;;;;;47.70;24.48;;;;;;;;;;5054733;28;20210;-73
2022/10/13 06:03:06;;;;;;;39.10;23.58;;;;;;;;;;5057694;28;20241;-73
2022/10/13 06:05:33;;;;;;;40.67;23.00;;;;;;;;;;5055130;28;20209;-73
2022/10/13 06:07:59;;;;;;;34.92;22.38;;;;;;;;;;5054938;28;20274;-73
2022/10/13 06:10:26;;;;;;;34.55;21.52;;;;;;;;;;5052930;28;20678;-73
2022/10/13 06:12:53;;;;;;;41.05;22.30;;;;;;;;;;5054730;28;21848;-73
2022/10/13 06:15:19;;;;;;;46.65;23.17;;;;;;;;;;5051674;28;20694;-73
2022/10/13 06:17:47;;;;;;;54.90;23.83;;;;;;;;;;5054978;28;20225;-73
2022/10/13 06:20:13;;;;;;;40.10;22.20;;;;;;;;;;5053982;28;21938;-73
2022/10/13 06:22:40;;;;;;;35.28;21.92;;;;;;;;;;5056657;28;20209;-73
2022/10/13 06:25:07;;;;;;;31.88;21.40;;;;;;;;;;5057926;28;20760;-72
2022/10/13 06:27:34;;;;;;;31.95;19.83;;;;;;;;;;5056138;28;20242;-72
2022/10/13 06:30:00;;;;;;;31.40;20.70;;;;;;;;;;5059858;28;20680;-72
2022/10/13 06:32:27;;;;;;;34.85;22.23;;;;;;;;;;5057877;28;20204;-72
2022/10/13 06:34:55;;;;;;;41.42;24.40;;;;;;;;;;5059734;28;20201;-73
2022/10/13 06:37:21;;;;;;;34.70;22.80;;;;;;;;;;5056486;28;20802;-75
2022/10/13 06:39:48;;;;;;;45.97;24.02;;;;;;;;;;5057708;28;20201;-74
2022/10/13 06:42:14;;;;;;;40.92;25.15;;;;;;;;;;5059781;28;20315;-74
2022/10/13 06:44:41;;;;;;;62.42;33.95;;;;;;;;;;5058943;28;20217;-73
2022/10/13 06:47:08;;;;;;;41.42;22.60;;;;;;;;;;5056921;28;20205;-72
2022/10/13 06:49:34;;;;;;;36.80;22.48;;;;;;;;;;5059287;28;20700;-72
2022/10/13 06:52:02;;;;;;;41.05;24.30;;;;;;;;;;5057874;28;20275;-72
2022/10/13 06:54:29;;;;;;;43.42;23.45;;;;;;;;;;5060198;28;20291;-72
2022/10/13 06:56:56;;;;;;;38.95;24.45;;;;;;;;;;5057970;28;20233;-73
2022/10/13 06:59:22;;;;;;;38.05;24.52;;;;;;;;;;5058882;28;20634;-72
2022/10/13 07:01:50;;;;;;;37.28;26.15;;;;;;;;;;5057222;28;20366;-73
2022/10/13 07:04:17;;;;;;;37.30;23.50;;;;;;;;;;5061016;28;20837;-73
2022/10/13 07:06:43;;;;;;;43.10;23.95;;;;;;;;;;5056916;28;20301;-73
2022/10/13 07:09:11;;;;;;;34.53;23.08;;;;;;;;;;5062470;28;22495;-73
2022/10/13 07:11:37;;;;;;;37.70;23.83;;;;;;;;;;5064005;28;20306;-74
2022/10/13 07:14:04;;;;;;;36.90;23.80;;;;;;;;;;5062532;28;20239;-73
2022/10/13 07:16:30;;;;;;;39.88;23.00;;;;;;;;;;5062685;28;20257;-74
2022/10/13 07:18:57;;;;;;;31.27;22.17;;;;;;;;;;5064550;28;20297;-71
2022/10/13 07:21:23;;;;;;;30.90;21.70;;;;;;;;;;5060717;28;20206;-73
2022/10/13 07:23:50;;;;;;;32.95;21.67;;;;;;;;;;5055145;28;20225;-72
2022/10/13 07:26:18;;;;;;;35.53;23.27;;;;;;;;;;5058485;28;20534;-73
2022/10/13 07:28:44;;;;;;;38.08;22.60;;;;;;;;;;5059370;28;20716;-73
2022/10/13 07:31:12;;;;;;;64.50;30.13;;;;;;;;;;5056949;28;20291;-73
2022/10/13 07:33:39;;;;;;;38.78;24.00;;;;;;;;;;5059391;28;20209;-74
2022/10/13 07:36:06;;;;;;;34.42;22.08;;;;;;;;;;5059885;28;20205;-74
2022/10/13 07:38:32;;;;;;;34.35;21.98;;;;;;;;;;5060766;28;20229;-74
2022/10/13 07:41:00;;;;;;;34.55;22.92;;;;;;;;;;5061221;28;20280;-73
2022/10/13 07:43:28;;;;;;;43.13;24.88;;;;;;;;;;5057565;28;21921;-74
2022/10/13 07:45:54;;;;;;;37.45;24.90;;;;;;;;;;5063545;28;20615;-73
2022/10/13 07:48:21;;;;;;;49.97;26.73;;;;;;;;;;5059332;28;20653;-76
2022/10/13 07:50:47;;;;;;;34.13;22.17;;;;;;;;;;5058688;28;20266;-73
2022/10/13 07:53:13;;;;;;;45.03;26.42;;;;;;;;;;5061184;28;20540;-74
2022/10/13 07:55:40;;;;;;;43.13;25.85;;;;;;;;;;5063920;28;20258;-73
2022/10/13 07:58:06;;;;;;;26.70;19.67;;;;;;;;;;5060715;28;20678;-74
2022/10/13 08:00:34;;;;;;;26.48;19.98;;;;;;;;;;5054708;28;20204;-73
2022/10/13 08:03:01;;;;;;;31.13;22.35;;;;;;;;;;5057196;28;20202;-72
2022/10/13 08:05:27;;;;;;;40.40;24.83;;;;;;;;;;5059618;28;20703;-73
2022/10/13 08:07:54;;;;;;;26.58;20.17;;;;;;;;;;5059819;28;20643;-72
2022/10/13 08:10:21;;;;;;;23.10;20.60;;;;;;;;;;5054473;28;20220;-72
2022/10/13 08:12:47;;;;;;;24.90;20.58;;;;;;;;;;5064914;28;21772;-72
2022/10/13 08:15:14;;;;;;;33.88;20.65;;;;;;;;;;5062091;28;20200;-73
2022/10/13 08:17:42;;;;;;;22.95;19.73;;;;;;;;;;5062168;28;20309;-72
2022/10/13 08:20:09;;;;;;;24.55;21.40;;;;;;;;;;5061952;28;20898;-73
2022/10/13 08:22:36;;;;;;;36.00;22.05;;;;;;;;;;5060441;28;20201;-73
2022/10/13 08:25:02;;;;;;;30.25;22.55;;;;;;;;;;5056305;28;20213;-73
2022/10/13 08:27:29;;;;;;;33.05;21.90;;;;;;;;;;5056633;28;20294;-74
2022/10/13 08:29:56;;;;;;;28.10;20.58;;;;;;;;;;5056735;28;20246;-73
2022/10/13 08:32:22;;;;;;;24.67;19.85;;;;;;;;;;5061425;28;20205;-73
2022/10/13 08:34:50;;;;;;;29.88;19.70;;;;;;;;;;5056715;28;20265;-72
2022/10/13 08:37:17;;;;;;;28.48;20.65;;;;;;;;;;5058134;28;20322;-73
2022/10/13 08:39:44;;;;;;;32.08;21.65;;;;;;;;;;5060963;28;20209;-74
2022/10/13 08:42:16;;;;;;;31.15;19.75;;;;;;;;;;5060649;28;20251;-74
2022/10/13 08:44:45;;;;;;;31.42;23.70;;;;;;;;;;5056308;28;20289;-73
2022/10/13 08:47:14;;;;;;;30.63;20.13;;;;;;;;;;5052156;28;20290;-72
2022/10/13 08:49:42;;;;;;;44.13;23.35;;;;;;;;;;5054186;28;20347;-72
2022/10/13 08:52:13;;;;;;;27.98;20.00;;;;;;;;;;5059130;28;20260;-73
2022/10/13 08:54:39;;;;;;;31.13;21.13;;;;;;;;;;5056562;28;20213;-74
2022/10/13 08:57:08;;;;;;;29.08;21.85;;;;;;;;;;5058502;28;20297;-73
2022/10/13 08:59:34;;;;;;;28.85;21.10;;;;;;;;;;5060087;28;20261;-75
2022/10/13 09:02:02;;;;;;;30.85;20.35;;;;;;;;;;5059520;28;21033;-74
2022/10/13 09:04:31;;;;;;;27.92;20.27;;;;;;;;;;5057095;28;20275;-73
2022/10/13 09:07:01;;;;;;;36.05;18.88;;;;;;;;;;5057410;28;20220;-73
2022/10/13 09:09:29;;;;;;;23.30;19.75;;;;;;;;;;5061541;28;20209;-74
2022/10/13 09:11:58;;;;;;;34.88;21.58;;;;;;;;;;5060420;28;20209;-75
2022/10/13 09:14:27;;;;;;;33.17;19.65;;;;;;;;;;5056665;28;20371;-73
2022/10/13 09:16:54;;;;;;;31.00;20.65;;;;;;;;;;5058487;28;20296;-72
2022/10/13 09:19:22;;;;;;;30.08;20.13;;;;;;;;;;5056018;28;21122;-75
2022/10/13 09:21:49;;;;;;;24.20;18.55;;;;;;;;;;5060166;28;21475;-73
2022/10/13 09:24:16;;;;;;;29.73;19.60;;;;;;;;;;5058711;28;20639;-73
2022/10/13 09:26:45;;;;;;;34.42;19.70;;;;;;;;;;5055868;28;20200;-73
2022/10/13 09:29:16;;;;;;;27.25;18.50;;;;;;;;;;5061769;28;20751;-74
2022/10/13 09:31:42;;;;;;;38.67;20.58;;;;;;;;;;5063252;28;20306;-74
2022/10/13 09:34:13;;;;;;;27.92;19.55;;;;;;;;;;5060918;28;20206;-70
2022/10/13 09:36:54;;;;;;;31.33;21.42;;;;;;;;;;5085428;28;20197;-73
2022/10/13 09:39:21;;;;;;;28.98;18.90;;;;;;;;;;5088969;28;20197;-74
2022/10/13 09:41:49;;;;;;;31.10;19.13;;;;;;;;;;5088490;28;20280;-75
2022/10/13 09:44:17;;;;;;;27.52;19.90;;;;;;;;;;5086322;28;20202;-72
2022/10/13 09:46:50;;;;;;;33.25;22.08;;;;;;;;;;5086077;28;20734;-75
2022/10/13 09:49:33;;;;;;;35.92;21.45;;;;;;;;;;5087334;28;20946;-76
2022/10/13 09:52:01;;;;;;;34.75;22.67;;;;;;;;;;5086874;28;20237;-74
2022/10/13 09:54:28;;;;;;;33.70;22.67;;;;;;;;;;5087915;28;20194;-74
2022/10/13 09:56:59;;;;;;;33.72;21.40;;;;;;;;;;5090131;28;20197;-74
2022/10/13 09:59:32;;;;;;;31.55;20.58;;;;;;;;;;5092742;28;20221;-72
2022/10/13 10:02:00;;;;;;;29.90;20.63;;;;;;;;;;5093685;28;20221;-75
2022/10/13 10:04:32;;;;;;;30.77;21.17;;;;;;;;;;5094368;28;20280;-74
2022/10/13 10:06:58;;;;;;;37.08;21.77;;;;;;;;;;5093485;28;20220;-74
2022/10/13 10:09:33;;;;;;;28.20;19.77;;;;;;;;;;5095085;28;20275;-74
2022/10/13 10:12:03;;;;;;;39.08;21.17;;;;;;;;;;5097168;28;20196;-74
2022/10/13 10:14:31;;;;;;;26.45;20.67;;;;;;;;;;5096236;28;20209;-75
2022/10/13 10:17:00;;;;;;;39.30;20.40;;;;;;;;;;5094629;28;20288;-72
2022/10/13 10:19:29;;;;;;;25.08;19.35;;;;;;;;;;5094757;28;20225;-73
2022/10/13 10:22:02;;;;;;;29.98;20.48;;;;;;;;;;5095534;28;20197;-73
2022/10/13 10:24:34;;;;;;;30.85;20.75;;;;;;;;;;5096486;28;20250;-73
2022/10/13 10:27:05;;;;;;;29.08;20.38;;;;;;;;;;5102641;28;20185;-74
2022/10/13 10:29:38;;;;;;;28.35;18.45;;;;;;;;;;5116063;28;20201;-74
2022/10/13 10:32:10;;;;;;;28.73;18.95;;;;;;;;;;5116305;28;20196;-73
2022/10/13 10:34:42;;;;;;;31.38;21.15;;;;;;;;;;5116727;28;20189;-73
2022/10/13 10:37:29;;;;;;;30.45;19.58;;;;;;;;;;5116631;28;20247;-74
2022/10/13 10:40:02;;;;;;;40.35;21.20;;;;;;;;;;5074110;28;20562;-73
2022/10/13 10:42:42;;;;;;;31.83;20.40;;;;;;;;;;5115779;28;20219;-75
2022/10/13 10:45:15;;;;;;;27.55;19.50;;;;;;;;;;5114956;28;20292;-74
2022/10/13 10:47:43;;;;;;;27.85;18.95;;;;;;;;;;5115759;28;20718;-74
2022/10/13 10:50:14;;;;;;;30.80;20.00;;;;;;;;;;5115814;28;20197;-73
2022/10/13 10:52:45;;;;;;;31.98;20.15;;;;;;;;;;5115119;28;20225;-74
2022/10/13 10:55:23;;;;;;;33.78;20.10;;;;;;;;;;5116234;28;20749;-73
2022/10/13 10:57:58;;;;;;;32.00;19.95;;;;;;;;;;5114800;28;20304;-75
2022/10/13 11:00:25;;;;;;;29.17;19.15;;;;;;;;;;5114505;28;20661;-74
2022/10/13 11:02:58;;;;;;;27.08;18.23;;;;;;;;;;5114395;28;20280;-73
2022/10/13 11:05:25;;;;;;;23.35;17.98;;;;;;;;;;5114435;28;20197;-74
2022/10/13 11:07:56;;;;;;;31.63;19.48;;;;;;;;;;5114034;28;20315;-74
2022/10/13 11:10:25;;;;;;;25.98;19.17;;;;;;;;;;5114085;28;20201;-74
2022/10/13 11:13:15;;;;;;;31.40;21.10;;;;;;;;;;5115280;28;20197;-74
2022/10/13 11:15:43;;;;;;;24.85;18.55;;;;;;;;;;5113925;28;20254;-71
2022/10/13 11:18:29;;;;;;;33.72;19.48;;;;;;;;;;5114114;28;20353;-74
2022/10/13 11:20:59;;;;;;;30.35;18.67;;;;;;;;;;5114524;28;20204;-73
2022/10/13 11:23:33;;;;;;;36.67;20.75;;;;;;;;;;5113375;28;20233;-74
2022/10/13 11:26:18;;;;;;;31.00;19.10;;;;;;;;;;5113089;28;20197;-75
2022/10/13 11:28:47;;;;;;;27.55;18.65;;;;;;;;;;5114034;28;20228;-75
2022/10/13 11:31:24;;;;;;;31.25;20.42;;;;;;;;;;5114133;28;20200;-74
2022/10/13 11:33:52;;;;;;;27.83;18.98;;;;;;;;;;5114184;28;20260;-73
2022/10/13 11:36:46;;;;;;;28.95;18.60;;;;;;;;;;5113508;28;20236;-74
2022/10/13 11:39:31;;;;;;;27.02;18.80;;;;;;;;;;5113767;28;20278;-74
2022/10/13 11:42:02;;;;;;;23.63;17.15;;;;;;;;;;5113196;28;20201;-75
2022/10/13 11:44:33;;;;;;;32.97;17.80;;;;;;;;;;5112440;28;20749;-74
2022/10/13 11:47:02;;;;;;;27.00;17.48;;;;;;;;;;5112278;28;20755;-74
2022/10/13 11:49:43;;;;;;;23.65;17.05;;;;;;;;;;5112168;28;20591;-74
2022/10/13 11:52:28;;;;;;;25.58;17.08;;;;;;;;;;5112532;28;20282;-73
2022/10/13 11:54:58;;;;;;;20.50;16.25;;;;;;;;;;5112754;28;20258;-75
2022/10/13 11:57:25;;;;;;;27.00;17.70;;;;;;;;;;5112679;28;20201;-75
2022/10/13 11:59:54;;;;;;;27.27;17.98;;;;;;;;;;5112459;28;20601;-75
2022/10/13 12:02:22;;;;;;;25.50;17.48;;;;;;;;;;5113217;28;20305;-74
2022/10/13 12:04:59;;;;;;;32.22;17.58;;;;;;;;;;5113077;28;20279;-74
2022/10/13 12:07:29;;;;;;;33.40;21.13;;;;;;;;;;5112420;28;20212;-73
2022/10/13 12:09:57;;;;;;;102.82;60.25;;;;;;;;;;5112127;28;20246;-71
2022/10/13 12:12:24;;;;;;;23.65;18.55;;;;;;;;;;5111948;28;20197;-71
2022/10/13 12:14:52;;;;;;;25.13;18.10;;;;;;;;;;5111913;28;20197;-71
2022/10/13 12:17:21;;;;;;;32.28;20.27;;;;;;;;;;5112909;28;20197;-73
2022/10/13 12:19:48;;;;;;;21.77;16.38;;;;;;;;;;5111164;28;20220;-73
2022/10/13 12:22:15;;;;;;;23.10;14.88;;;;;;;;;;5111908;28;20246;-73
2022/10/13 12:24:41;;;;;;;17.27;14.73;;;;;;;;;;5111486;28;20246;-74
2022/10/13 12:27:10;;;;;;;20.38;14.20;;;;;;;;;;5111969;28;20635;-73
2022/10/13 12:29:39;;;;;;;19.65;14.75;;;;;;;;;;5110909;28;20209;-74
2022/10/13 12:32:17;;;;;;;19.02;14.07;;;;;;;;;;5111200;28;20207;-73
2022/10/13 12:34:45;;;;;;;17.58;13.93;;;;;;;;;;5109909;28;20670;-74
2022/10/13 12:37:14;;;;;;;21.15;13.85;;;;;;;;;;5111218;28;20196;-69
2022/10/13 12:39:41;;;;;;;30.48;16.30;;;;;;;;;;5110183;28;20706;-76
2022/10/13 12:42:11;;;;;;;19.65;13.52;;;;;;;;;;5110235;28;20199;-74
2022/10/13 12:44:37;;;;;;;18.02;13.95;;;;;;;;;;5110681;28;20672;-73
2022/10/13 12:47:04;;;;;;;15.43;11.73;;;;;;;;;;5111573;28;20193;-74
2022/10/13 12:49:31;;;;;;;25.25;13.30;;;;;;;;;;5111320;28;20250;-74
2022/10/13 12:52:04;;;;;;;18.80;12.27;;;;;;;;;;5111425;28;20233;-74
2022/10/13 12:54:31;;;;;;;13.90;11.93;;;;;;;;;;5111223;28;20197;-73
2022/10/13 12:56:59;;;;;;;13.88;11.43;;;;;;;;;;5111063;28;20205;-75
2022/10/13 12:59:26;;;;;;;14.77;11.10;;;;;;;;;;5111083;28;20713;-74
2022/10/13 13:01:54;;;;;;;15.57;11.38;;;;;;;;;;5110842;28;20193;-74
2022/10/13 13:04:28;;;;;;;12.93;10.80;;;;;;;;;;5111738;28;20197;-74
2022/10/13 13:06:55;;;;;;;20.35;12.07;;;;;;;;;;5111448;28;20217;-74
2022/10/13 13:09:27;;;;;;;11.48;10.35;;;;;;;;;;5111799;28;20197;-73
2022/10/13 13:12:12;;;;;;;10.70;9.60;;;;;;;;;;5111744;28;20277;-74
2022/10/13 13:14:40;;;;;;;13.75;9.27;;;;;;;;;;5111170;28;20201;-73
2022/10/13 13:17:08;;;;;;;10.48;9.55;;;;;;;;;;5111618;28;20206;-74
2022/10/13 13:19:35;;;;;;;11.90;10.68;;;;;;;;;;5111285;28;20220;-73
2022/10/13 13:22:02;;;;;;;10.18;9.18;;;;;;;;;;5111540;28;20201;-74
2022/10/13 13:24:30;;;;;;;10.93;8.50;;;;;;;;;;5111715;28;20196;-74
2022/10/13 13:26:57;;;;;;;10.27;9.10;;;;;;;;;;5111588;28;20258;-73
2022/10/13 13:29:23;;;;;;;10.60;8.85;;;;;;;;;;5111952;28;20224;-73
2022/10/13 13:31:50;;;;;;;13.27;9.27;;;;;;;;;;5117798;28;20261;-73
2022/10/13 13:34:16;;;;;;;11.45;9.07;;;;;;;;;;5116177;28;20254;-74
2022/10/13 13:36:43;;;;;;;10.85;9.75;;;;;;;;;;5118161;28;20197;-74
2022/10/13 13:39:13;;;;;;;14.75;9.48;;;;;;;;;;5118611;28;20256;-73
2022/10/13 13:41:42;;;;;;;13.32;10.85;;;;;;;19.45;nan;95490.44;5116179;28;20200;-73
2022/10/13 13:44:08;;;;;;;13.18;9.73;;;;;;;;;;5115703;28;20196;-73
2022/10/13 13:46:35;;;;;;;16.30;8.70;;;;;;;;;;5115963;28;20261;-74
2022/10/13 13:49:02;;;;;;;10.63;8.95;;;;;;;;;;5115241;28;20681;-73
2022/10/13 13:51:29;;;;;;;9.75;8.75;;;;;;;;;;5116253;28;20577;-73
2022/10/13 13:53:55;;;;;;;12.15;9.77;;;;;;;;;;5116202;28;20689;-73
2022/10/13 13:56:22;;;;;;;14.65;8.40;;;;;;;;;;5115762;28;20208;-71
2022/10/13 13:58:49;;;;;;;18.48;11.68;;;;;;;;;;5114818;28;20223;-73
2022/10/13 14:01:16;;;;;;;19.05;12.60;;;;;;;;;;5115491;28;20201;-67
2022/10/13 14:03:43;;;;;;;14.07;9.45;;;;;;;;;;5115918;28;20193;-75
2022/10/13 14:06:16;;;;;;;15.45;8.40;;;;;;;;;;5115289;28;20274;-73
2022/10/13 14:08:43;;;;;;;10.98;8.75;;;;;;;;;;5117113;28;20631;-72
2022/10/13 14:11:10;;;;;;;17.77;10.23;;;;;;;;;;5116028;28;20192;-74
2022/10/13 14:13:37;;;;;;;9.75;8.63;;;;;;;;;;5118808;28;20201;-75
2022/10/13 14:16:05;;;;;;;15.30;9.52;;;;;;;;;;5117619;28;20283;-73
2022/10/13 14:18:33;;;;;;;15.07;9.57;;;;;;;;;;5117307;28;20197;-69
2022/10/13 14:21:00;;;;;;;10.90;8.70;;;;;;;;;;5116828;28;20208;-73
2022/10/13 14:23:27;;;;;;;15.90;9.80;;;;;;;18.86;nan;95487.97;5114303;28;20583;-73